Time;durP1;ratioP1;P1;durP2;ratioP2;P2;SDS_P1;SDS_P2;PMS_P1;PMS_P2;Temp;Humidity;BMP_temperature;BMP_pressure;BME280_temperature;BME280_humidity;BME280_pressure;Samples;Min_cycle;Max_cycle;Signal;HPM_P1;HPM_P2
2024/04/14 00:02:15;;;;;;;1.00;1.00;;;;;;;13.05;76.90;100170.38;5418839;26;20010;-67
2024/04/14 00:04:52;;;;;;;1.20;1.10;;;;;;;12.96;76.43;100167.84;5418973;26;20000;-67
2024/04/14 00:07:24;;;;;;;0.88;0.80;;;;;;;12.88;76.70;100154.22;5418765;26;20345;-67
2024/04/14 00:09:52;;;;;;;1.05;0.95;;;;;;;12.95;77.02;100160.16;5419295;26;20073;-67
2024/04/14 00:12:23;;;;;;;2.67;1.40;;;;;;;12.85;76.95;100164.47;5418625;26;20068;-66
2024/04/14 00:14:52;;;;;;;0.88;0.88;;;;;;;12.88;77.00;100164.47;5418817;26;20007;-67
2024/04/14 00:17:23;;;;;;;0.75;0.75;;;;;;;12.82;77.26;100169.56;5417108;26;20007;-67
2024/04/14 00:19:54;;;;;;;0.80;0.75;;;;;;;12.78;77.45;100157.66;5419109;26;20450;-67
2024/04/14 00:22:25;;;;;;;2.22;1.40;;;;;;;12.77;77.35;100150.78;5418683;26;20000;-67
2024/04/14 00:24:53;;;;;;;1.00;0.90;;;;;;;12.51;77.85;100117.56;5416982;26;20068;-67
2024/04/14 00:27:24;;;;;;;1.55;1.23;;;;;;;12.58;77.19;100138.88;5387204;26;20007;-67
2024/04/14 00:29:52;;;;;;;1.08;0.98;;;;;;;12.48;77.72;100137.19;5417164;26;20019;-67
2024/04/14 00:32:23;;;;;;;1.40;1.15;;;;;;;12.46;78.27;100139.75;5418470;26;20000;-67
2024/04/14 00:34:51;;;;;;;1.88;1.75;;;;;;;12.42;78.38;100134.66;5418311;26;20415;-67
2024/04/14 00:37:25;;;;;;;0.85;0.82;;;;;;;12.38;78.62;100127.84;5416723;26;20004;-67
2024/04/14 00:39:52;;;;;;;0.80;0.65;;;;;;;12.35;78.45;100130.38;5418725;26;20472;-67
2024/04/14 00:42:23;;;;;;;1.25;1.15;;;;;;;12.28;78.60;100113.31;5416647;26;20086;-67
2024/04/14 00:44:51;;;;;;;0.98;0.93;;;;;;;12.29;78.10;100127.81;5418355;26;20072;-67
2024/04/14 00:47:22;;;;;;;0.77;0.77;;;;;;;12.28;78.13;100118.44;5416633;26;20071;-66
2024/04/14 00:49:50;;;;;;;1.42;1.00;;;;;;;12.32;78.57;100120.16;5418098;26;20010;-67
2024/04/14 00:52:20;;;;;;;0.90;0.90;;;;;;;12.37;78.42;100123.56;5418439;26;20012;-66
2024/04/14 00:54:51;;;;;;;0.77;0.70;;;;;;;12.32;78.24;100130.38;5418234;26;20027;-66
2024/04/14 00:57:22;;;;;;;0.60;0.60;;;;;;;12.30;78.49;100124.41;5418812;26;20015;-67
2024/04/14 00:59:52;;;;;;;0.40;0.40;;;;;;;12.32;78.70;100126.13;5418460;26;20407;-67
2024/04/14 01:02:23;;;;;;;1.05;0.60;;;;;;;12.27;78.95;100127.81;5418308;26;20004;-67
2024/04/14 01:04:51;;;;;;;2.00;1.45;;;;;;;12.26;78.38;100125.28;5417986;26;20400;-67
2024/04/14 01:07:22;;;;;;;1.00;0.68;;;;;;;12.23;78.93;100127.84;5417972;26;20014;-67
2024/04/14 01:09:53;;;;;;;0.85;0.82;;;;;;;12.18;78.80;100126.97;5416316;26;19999;-67
2024/04/14 01:12:24;;;;;;;1.48;0.90;;;;;;;12.14;79.35;100112.50;5417767;26;20004;-67
2024/04/14 01:14:52;;;;;;;0.80;0.80;;;;;;;12.09;79.04;100113.31;5417770;26;20010;-67
2024/04/14 01:17:22;;;;;;;0.60;0.60;;;;;;;11.94;79.46;100094.56;5416007;26;20008;-67
2024/04/14 01:19:51;;;;;;;0.75;0.75;;;;;;;12.01;79.27;100099.69;5418155;26;20371;-67
2024/04/14 01:22:21;;;;;;;1.70;1.42;;;;;;;12.04;79.28;100104.78;5417600;26;20012;-66
2024/04/14 01:24:53;;;;;;;0.88;0.88;;;;;;;12.12;79.77;100111.63;5417592;26;20068;-67
2024/04/14 01:27:27;;;;;;;0.80;0.80;;;;;;;12.20;79.24;100102.22;5418006;26;20008;-67
2024/04/14 01:29:55;;;;;;;0.45;0.45;;;;;;;12.21;79.26;100101.41;5418037;26;19999;-67
2024/04/14 01:32:25;;;;;;;3.22;1.00;;;;;;;12.24;79.25;100097.09;5417098;26;20014;-67
2024/04/14 01:34:53;;;;;;;0.65;0.65;;;;;;;12.28;78.80;100092.84;5417610;26;20400;-67
2024/04/14 01:37:24;;;;;;;0.50;0.50;;;;;;;12.30;78.83;100086.03;5415919;26;20485;-67
2024/04/14 01:39:52;;;;;;;0.85;0.85;;;;;;;12.26;78.63;100081.78;5415572;26;20010;-67
2024/04/14 01:42:26;;;;;;;0.40;0.40;;;;;;;12.19;78.61;100087.75;5417317;26;20016;-67
2024/04/14 01:44:54;;;;;;;1.48;1.27;;;;;;;12.13;78.46;100082.63;5416289;26;20076;-67
2024/04/14 01:47:24;;;;;;;0.60;0.60;;;;;;;12.13;78.53;100087.75;5417233;26;20022;-67
2024/04/14 01:49:52;;;;;;;0.50;0.50;;;;;;;12.06;78.64;100092.00;5416000;26;20003;-67
2024/04/14 01:52:23;;;;;;;0.80;0.80;;;;;;;12.04;78.67;100078.38;5417034;26;20012;-67
2024/04/14 01:54:53;;;;;;;0.60;0.60;;;;;;;12.02;78.67;100086.03;5417527;26;20003;-67
2024/04/14 01:57:26;;;;;;;2.50;1.40;;;;;;;12.01;78.71;100078.38;5417128;26;20014;-67
2024/04/14 01:59:54;;;;;;;0.80;0.80;;;;;;;12.07;78.75;100079.22;5417218;26;20003;-67
2024/04/14 02:02:25;;;;;;;0.60;0.60;;;;;;;12.04;78.77;100079.19;5419125;26;20015;-67
2024/04/14 02:04:53;;;;;;;1.00;0.93;;;;;;;11.91;78.22;100080.06;5420655;26;20329;-67
2024/04/14 02:07:23;;;;;;;1.85;1.15;;;;;;;11.83;78.41;100083.50;5420429;26;20032;-67
2024/04/14 02:09:53;;;;;;;0.70;0.70;;;;;;;11.79;78.39;100087.75;5418839;26;20018;-67
2024/04/14 02:12:26;;;;;;;0.40;0.40;;;;;;;11.72;78.68;100085.16;5420497;26;20075;-66
2024/04/14 02:14:54;;;;;;;0.40;0.40;;;;;;;11.68;78.33;100079.22;5421149;26;20011;-67
2024/04/14 02:17:25;;;;;;;1.23;0.85;;;;;;;11.60;78.59;100067.22;5420332;26;20016;-67
2024/04/14 02:19:53;;;;;;;2.30;2.05;;;;;;;11.62;78.79;100074.03;5418123;26;20007;-67
2024/04/14 02:22:24;;;;;;;0.40;0.40;;;;;;;11.65;78.69;100074.06;5420374;26;20035;-67
2024/04/14 02:24:53;;;;;;;0.85;0.82;;;;;;;11.53;79.30;100057.84;5420803;26;20006;-67
2024/04/14 02:27:26;;;;;;;0.40;0.40;;;;;;;11.47;78.89;100056.13;5420158;26;20018;-67
2024/04/14 02:29:54;;;;;;;0.70;0.70;;;;;;;11.42;79.32;100055.28;5420337;26;20077;-67
2024/04/14 02:32:25;;;;;;;0.43;0.43;;;;;;;11.40;79.41;100052.72;5420277;26;20003;-67
2024/04/14 02:34:53;;;;;;;0.40;0.40;;;;;;;11.47;79.83;100053.56;5420345;26;20000;-67
2024/04/14 02:37:23;;;;;;;0.50;0.50;;;;;;;11.39;79.87;100055.28;5418584;26;20004;-67
2024/04/14 02:39:51;;;;;;;0.40;0.40;;;;;;;11.34;79.65;100033.97;5420525;26;20032;-67
2024/04/14 02:42:22;;;;;;;0.85;0.85;;;;;;;11.38;80.03;100043.34;5420403;26;20011;-67
2024/04/14 02:44:54;;;;;;;0.50;0.50;;;;;;;11.37;79.97;100041.66;5420746;26;20069;-67
2024/04/14 02:47:24;;;;;;;1.20;0.95;;;;;;;11.37;80.46;100039.09;5420036;26;20067;-67
2024/04/14 02:49:52;;;;;;;0.43;0.43;;;;;;;11.39;79.99;100042.50;5420254;26;20073;-67
2024/04/14 02:52:23;;;;;;;2.28;1.33;;;;;;;11.48;80.36;100033.97;5418317;26;20461;-67
2024/04/14 02:54:51;;;;;;;0.50;0.50;;;;;;;11.41;80.27;100030.56;5420129;26;20014;-67
2024/04/14 02:57:21;;;;;;;0.52;0.52;;;;;;;11.37;80.42;100032.25;5419803;26;20449;-67
2024/04/14 02:59:49;;;;;;;0.85;0.63;;;;;;;11.40;80.64;100036.50;5420063;26;20324;-67
2024/04/14 03:02:23;;;;;;;1.20;0.85;;;;;;;11.33;80.42;100034.81;5418005;26;20011;-67
2024/04/14 03:04:51;;;;;;;1.25;0.82;;;;;;;11.29;80.47;100033.97;5419930;26;20006;-66
2024/04/14 03:07:21;;;;;;;0.80;0.80;;;;;;;11.29;81.02;100035.66;5419774;26;20014;-67
2024/04/14 03:09:52;;;;;;;0.40;0.40;;;;;;;11.31;81.48;100039.06;5419698;26;19999;-67
2024/04/14 03:12:23;;;;;;;2.78;1.65;;;;;;;11.33;81.36;100037.34;5418433;26;19999;-68
2024/04/14 03:14:53;;;;;;;0.75;0.75;;;;;;;11.35;81.68;100027.97;5419645;26;20072;-67
2024/04/14 03:17:26;;;;;;;0.87;0.87;;;;;;;11.40;81.29;100029.72;5417948;26;19999;-67
2024/04/14 03:19:54;;;;;;;0.60;0.60;;;;;;;11.38;81.32;100028.84;5419777;26;20218;-67
2024/04/14 03:22:25;;;;;;;0.50;0.50;;;;;;;11.30;81.43;100029.72;5419514;26;20039;-67
2024/04/14 03:24:53;;;;;;;0.65;0.65;;;;;;;11.30;81.61;100027.16;5417807;26;20075;-67
2024/04/14 03:27:23;;;;;;;0.40;0.40;;;;;;;11.28;81.65;100024.56;5419522;26;20044;-67
2024/04/14 03:29:52;;;;;;;0.50;0.50;;;;;;;11.30;82.18;100020.31;5419275;26;20454;-67
2024/04/14 03:32:22;;;;;;;1.10;1.02;;;;;;;11.24;82.08;100014.34;5419023;26;20358;-67
2024/04/14 03:34:54;;;;;;;1.15;0.85;;;;;;;11.29;81.92;100022.88;5419276;26;20053;-67
2024/04/14 03:37:25;;;;;;;0.60;0.60;;;;;;;11.31;82.18;100026.28;5419342;26;20000;-67
2024/04/14 03:39:56;;;;;;;1.08;0.70;;;;;;;11.25;81.80;100022.00;5417657;26;20053;-67
2024/04/14 03:42:26;;;;;;;1.08;1.08;;;;;;;11.27;81.71;100024.59;5419363;26;20072;-67
2024/04/14 03:44:57;;;;;;;0.65;0.60;;;;;;;11.23;81.89;100017.75;5419722;26;20035;-67
2024/04/14 03:47:25;;;;;;;0.30;0.30;;;;;;;11.18;81.70;100020.28;5419265;26;20015;-67
2024/04/14 03:49:58;;;;;;;0.55;0.55;;;;;;;11.18;81.65;100029.69;5419104;26;20007;-67
2024/04/14 03:52:27;;;;;;;0.40;0.40;;;;;;;11.15;81.74;100035.63;5417194;26;20343;-67
2024/04/14 03:54:57;;;;;;;0.80;0.80;;;;;;;11.15;81.55;100029.66;5419107;26;20075;-67
2024/04/14 03:57:25;;;;;;;0.40;0.40;;;;;;;11.17;81.84;100039.03;5419084;26;20072;-67
2024/04/14 03:59:56;;;;;;;0.88;0.85;;;;;;;11.21;81.40;100034.78;5419192;26;20010;-67
2024/04/14 04:02:24;;;;;;;0.75;0.65;;;;;;;11.25;81.86;100041.63;5418979;26;20004;-67
2024/04/14 04:04:54;;;;;;;0.60;0.60;;;;;;;11.23;81.71;100039.03;5419308;26;20000;-67
2024/04/14 04:07:25;;;;;;;0.40;0.40;;;;;;;11.19;81.74;100039.03;5419574;26;19999;-66
2024/04/14 04:09:55;;;;;;;1.95;1.17;;;;;;;11.04;81.67;100047.50;5419110;26;20076;-67
2024/04/14 04:12:24;;;;;;;0.82;0.82;;;;;;;10.99;81.75;100040.69;5416939;26;20080;-67
2024/04/14 04:14:54;;;;;;;0.63;0.63;;;;;;;10.99;82.06;100033.03;5419160;26;20011;-67
2024/04/14 04:17:22;;;;;;;0.70;0.70;;;;;;;10.98;82.34;100038.97;5419035;26;20000;-67
2024/04/14 04:19:52;;;;;;;0.77;0.77;;;;;;;11.04;82.28;100031.31;5419212;26;19999;-66
2024/04/14 04:22:20;;;;;;;0.88;0.60;;;;;;;10.91;82.85;99996.41;5418709;26;20068;-67
2024/04/14 04:24:54;;;;;;;0.70;0.70;;;;;;;10.99;82.54;100023.66;5418134;26;20011;-67
2024/04/14 04:27:22;;;;;;;1.10;1.00;;;;;;;11.00;83.00;100032.16;5419039;26;20004;-67
2024/04/14 04:29:53;;;;;;;1.45;1.23;;;;;;;11.06;82.58;100039.88;5418819;26;20010;-66
2024/04/14 04:32:21;;;;;;;0.98;0.80;;;;;;;11.11;82.86;100038.19;5418416;26;20309;-67
2024/04/14 04:34:52;;;;;;;1.20;1.10;;;;;;;11.18;82.87;100042.44;5418533;26;20467;-67
2024/04/14 04:37:20;;;;;;;1.30;1.10;;;;;;;11.17;82.65;100044.16;5417302;26;20011;-67
2024/04/14 04:39:54;;;;;;;1.13;1.02;;;;;;;11.17;82.67;100040.72;5418534;26;20076;-67
2024/04/14 04:42:22;;;;;;;0.68;0.68;;;;;;;11.29;82.52;100038.22;5418398;26;19999;-67
2024/04/14 04:44:52;;;;;;;0.85;0.85;;;;;;;11.34;82.84;100041.63;5418364;26;20000;-67
2024/04/14 04:47:20;;;;;;;0.40;0.40;;;;;;;11.41;82.90;100043.34;5418371;26;19999;-67
2024/04/14 04:49:51;;;;;;;0.73;0.73;;;;;;;11.48;83.16;100042.50;5418268;26;19999;-67
2024/04/14 04:52:19;;;;;;;0.90;0.88;;;;;;;11.56;83.09;100043.38;5418248;26;20010;-67
2024/04/14 04:54:49;;;;;;;0.80;0.80;;;;;;;11.62;83.06;100048.47;5418219;26;20076;-67
2024/04/14 04:57:20;;;;;;;0.63;0.43;;;;;;;11.67;83.44;100044.22;5416428;26;20000;-67
2024/04/14 04:59:50;;;;;;;1.17;1.08;;;;;;;11.61;83.10;100016.13;5418098;26;20329;-67
2024/04/14 05:02:18;;;;;;;0.70;0.70;;;;;;;11.82;83.08;100046.84;5418180;26;20076;-67
2024/04/14 05:04:54;;;;;;;0.60;0.60;;;;;;;11.90;83.22;100045.09;5418357;26;19999;-67
2024/04/14 05:07:23;;;;;;;0.98;0.93;;;;;;;12.02;83.05;100045.09;5416262;26;20010;-67
2024/04/14 05:09:55;;;;;;;1.35;1.25;;;;;;;12.09;83.26;100046.78;5417910;26;20073;-67
2024/04/14 05:12:26;;;;;;;0.50;0.50;;;;;;;12.15;82.37;100045.94;5417899;26;20000;-67
2024/04/14 05:14:57;;;;;;;0.80;0.80;;;;;;;12.13;82.16;100041.69;5415918;26;20040;-67
2024/04/14 05:17:25;;;;;;;1.13;1.02;;;;;;;12.30;81.95;100050.19;5418290;26;20124;-67
2024/04/14 05:19:55;;;;;;;0.68;0.65;;;;;;;12.32;81.83;100044.22;5417697;26;20442;-67
2024/04/14 05:22:23;;;;;;;0.47;0.47;;;;;;;12.41;81.58;100048.44;5417795;26;19999;-67
2024/04/14 05:24:54;;;;;;;1.33;1.23;;;;;;;12.37;80.94;100041.66;5415720;26;20052;-67
2024/04/14 05:27:28;;;;;;;1.95;1.13;;;;;;;12.45;81.18;100055.28;5418032;26;20004;-67
2024/04/14 05:29:58;;;;;;;0.45;0.45;;;;;;;12.54;80.41;100055.25;5417638;26;20010;-67
2024/04/14 05:32:26;;;;;;;1.88;1.15;;;;;;;12.56;80.71;100033.06;5417438;26;20076;-67
2024/04/14 05:34:57;;;;;;;1.08;1.00;;;;;;;12.67;80.28;100049.22;5417303;26;20011;-67
2024/04/14 05:37:25;;;;;;;0.70;0.70;;;;;;;12.66;79.66;100034.75;5418995;26;19999;-67
2024/04/14 05:39:56;;;;;;;0.50;0.50;;;;;;;12.78;79.37;100055.19;5420967;26;20367;-67
2024/04/14 05:42:24;;;;;;;0.73;0.73;;;;;;;12.76;80.09;100051.78;5421040;26;20010;-67
2024/04/14 05:44:57;;;;;;;0.47;0.47;;;;;;;12.76;79.16;100056.91;5419123;26;19999;-67
2024/04/14 05:47:25;;;;;;;1.15;1.05;;;;;;;12.80;79.35;100053.47;5418924;26;20472;-67
2024/04/14 05:49:56;;;;;;;6.38;1.42;;;;;;;12.86;79.01;100053.41;5420731;26;20007;-67
2024/04/14 05:52:27;;;;;;;0.90;0.85;;;;;;;12.90;79.32;100050.00;5421277;26;20010;-67
2024/04/14 05:54:58;;;;;;;1.45;1.35;;;;;;;12.95;79.13;100048.28;5420798;26;20049;-67
2024/04/14 05:57:26;;;;;;;1.45;1.25;;;;;;;12.98;79.15;100048.25;5420802;26;20507;-67
2024/04/14 05:59:59;;;;;;;3.50;1.70;;;;;;;12.95;79.13;100032.91;5421009;26;20004;-67
2024/04/14 06:02:27;;;;;;;0.93;0.93;;;;;;;13.18;79.11;100046.47;5418991;26;20008;-67
2024/04/14 06:04:58;;;;;;;0.50;0.50;;;;;;;13.18;78.82;100051.63;5420977;26;20007;-67
2024/04/14 06:07:26;;;;;;;0.43;0.43;;;;;;;13.25;78.84;100048.16;5420848;26;20041;-68
2024/04/14 06:09:56;;;;;;;1.48;1.38;;;;;;;13.28;78.73;100043.00;5420540;26;20086;-68
2024/04/14 06:12:24;;;;;;;0.50;0.50;;;;;;;13.36;79.19;100046.38;5420408;26;20004;-68
2024/04/14 06:14:55;;;;;;;0.73;0.70;;;;;;;13.39;79.06;100041.22;5420303;26;20007;-67
2024/04/14 06:17:25;;;;;;;2.03;1.38;;;;;;;13.51;79.36;100039.47;5420486;26;20014;-67
2024/04/14 06:19:57;;;;;;;1.80;1.60;;;;;;;13.66;78.59;100023.94;5420382;26;20014;-67
2024/04/14 06:22:24;;;;;;;1.75;1.63;;;;;;;13.76;78.65;100025.56;5420417;26;20000;-68
2024/04/14 06:24:55;;;;;;;2.15;1.23;;;;;;;13.85;79.21;100021.22;5389016;26;20011;-67
2024/04/14 06:27:23;;;;;;;1.45;1.15;;;;;;;13.91;79.24;100015.19;5420717;26;20003;-68
2024/04/14 06:29:54;;;;;;;1.15;1.13;;;;;;;13.91;78.54;100026.31;5418461;26;20008;-68
2024/04/14 06:32:22;;;;;;;1.27;1.17;;;;;;;14.00;78.57;100009.97;5420424;26;20505;-68
2024/04/14 06:34:55;;;;;;;1.30;0.90;;;;;;;14.13;78.40;100019.28;5420119;26;20412;-68
2024/04/14 06:37:23;;;;;;;0.68;0.68;;;;;;;14.28;78.36;100019.09;5418790;26;20003;-68
2024/04/14 06:39:54;;;;;;;1.45;1.33;;;;;;;14.37;77.86;100011.31;5420448;26;20003;-68
2024/04/14 06:42:22;;;;;;;1.73;1.20;;;;;;;14.47;77.84;100007.78;5420096;26;20417;-68
2024/04/14 06:44:52;;;;;;;0.63;0.63;;;;;;;14.51;77.33;100004.34;5420055;26;20054;-67
2024/04/14 06:47:20;;;;;;;2.45;1.75;;;;;;;14.60;77.56;100001.66;5420143;26;20075;-68
2024/04/14 06:49:51;;;;;;;1.02;0.90;;;;;;;14.64;77.40;100000.75;5419913;26;20092;-68
2024/04/14 06:52:22;;;;;;;1.95;1.10;;;;;;;14.77;77.49;99996.31;5419996;26;20015;-68
2024/04/14 06:54:53;;;;;;;1.15;0.95;;;;;;;14.84;77.32;99997.06;5419963;26;19999;-67
2024/04/14 06:57:21;;;;;;;1.10;1.00;;;;;;;14.98;76.94;99990.03;5418552;26;20072;-68
2024/04/14 06:59:54;;;;;;;1.25;0.85;;;;;;;14.97;76.87;99990.91;5419900;26;20011;-67
2024/04/14 07:02:22;;;;;;;0.60;0.60;;;;;;;14.94;76.77;99993.53;5420705;26;20010;-67
2024/04/14 07:04:53;;;;;;;1.85;1.35;;;;;;;14.97;76.64;99990.91;5419705;26;20035;-68
2024/04/14 07:07:23;;;;;;;0.98;0.75;;;;;;;15.05;76.09;99986.50;5419951;26;20004;-67
2024/04/14 07:09:54;;;;;;;2.58;1.75;;;;;;;15.14;76.26;99991.53;5420066;26;20065;-67
2024/04/14 07:12:22;;;;;;;1.33;1.23;;;;;;;15.23;76.03;99986.25;5418059;26;20460;-68
2024/04/14 07:14:52;;;;;;;2.80;1.08;;;;;;;15.30;75.66;99990.44;5419612;26;20024;-68
2024/04/14 07:17:20;;;;;;;0.80;0.80;;;;;;;15.37;75.48;99992.91;5419887;26;20469;-68
2024/04/14 07:19:51;;;;;;;0.90;0.90;;;;;;;15.52;75.14;99993.56;5419553;26;20004;-67
2024/04/14 07:22:19;;;;;;;4.13;1.90;;;;;;;15.53;75.14;99982.38;5417928;26;20011;-67
2024/04/14 07:24:52;;;;;;;1.15;1.05;;;;;;;15.60;75.04;99987.41;5419324;26;20004;-67
2024/04/14 07:27:20;;;;;;;0.95;0.73;;;;;;;15.69;74.53;99987.25;5420130;26;20003;-67
2024/04/14 07:29:50;;;;;;;4.30;1.02;;;;;;;15.71;74.76;99990.69;5419334;26;20015;-68
2024/04/14 07:32:18;;;;;;;7.43;2.67;;;;;;;15.86;74.46;99990.41;5419428;26;20003;-68
2024/04/14 07:34:49;;;;;;;1.83;1.40;;;;;;;16.03;74.16;99990.97;5417760;26;20022;-68
2024/04/14 07:37:16;;;;;;;1.95;1.23;;;;;;;15.97;73.73;99974.78;5417632;26;19999;-68
2024/04/14 07:39:47;;;;;;;0.98;0.77;;;;;;;16.17;73.53;99995.03;5419278;26;20032;-68
2024/04/14 07:42:18;;;;;;;0.88;0.80;;;;;;;16.32;73.54;100008.44;5419203;26;20076;-68
2024/04/14 07:44:48;;;;;;;1.50;1.40;;;;;;;16.37;73.69;99977.44;5419265;26;20433;-68
2024/04/14 07:47:16;;;;;;;0.65;0.65;;;;;;;16.49;73.85;99978.06;5417711;26;19999;-67
2024/04/14 07:49:47;;;;;;;1.85;1.45;;;;;;;16.65;73.58;99991.53;5417981;26;20014;-68
2024/04/14 07:52:15;;;;;;;0.80;0.80;;;;;;;16.77;72.90;99988.72;5417341;26;20000;-68
2024/04/14 07:54:46;;;;;;;0.63;0.63;;;;;;;16.84;72.34;100000.59;5419122;26;20012;-67
2024/04/14 07:57:17;;;;;;;0.75;0.75;;;;;;;16.92;71.90;100003.84;5417307;26;20003;-68
2024/04/14 07:59:48;;;;;;;0.88;0.88;;;;;;;17.11;72.18;99994.81;5429801;26;20050;-67
2024/04/14 08:02:17;;;;;;;1.23;1.13;;;;;;;17.30;71.73;99990.94;5418938;26;20003;-68
2024/04/14 08:04:48;;;;;;;1.30;1.20;;;;;;;17.30;71.06;99990.09;5417061;26;20319;-68
2024/04/14 08:07:16;;;;;;;1.40;1.30;;;;;;;17.36;70.82;99995.13;5418517;26;20004;-68
2024/04/14 08:09:46;;;;;;;1.33;1.23;;;;;;;17.41;70.18;99994.13;5424679;26;20006;-69
2024/04/14 08:12:18;;;;;;;2.53;1.10;;;;;;;17.43;70.18;99997.53;5432681;26;20461;-69
2024/04/14 08:14:49;;;;;;;1.67;1.08;;;;;;;17.64;70.39;100003.06;5429320;26;20007;-69
2024/04/14 08:17:17;;;;;;;1.85;1.45;;;;;;;17.74;70.13;100001.97;5448514;26;20007;-69
2024/04/14 08:19:48;;;;;;;0.77;0.70;;;;;;;17.92;69.38;99994.59;5452915;26;20003;-68
2024/04/14 08:22:15;;;;;;;1.33;1.08;;;;;;;18.08;68.96;100002.81;5483091;26;20079;-69
2024/04/14 08:24:46;;;;;;;1.85;1.60;;;;;;;18.13;68.63;100000.97;5454598;26;19998;-69
2024/04/14 08:27:14;;;;;;;0.73;0.73;;;;;;;18.33;68.81;99990.94;5454672;26;20333;-68
2024/04/14 08:29:48;;;;;;;1.05;0.98;;;;;;;18.52;67.54;99999.91;5452704;26;20112;-68
2024/04/14 08:32:16;;;;;;;1.30;1.20;;;;;;;18.69;67.27;100002.88;5454403;26;20402;-69
2024/04/14 08:34:46;;;;;;;1.80;1.70;;;;;;;18.76;67.50;99997.53;5454452;26;20006;-68
2024/04/14 08:37:15;;;;;;;2.08;1.23;;;;;;;18.78;66.98;99996.59;5454789;26;20011;-69
2024/04/14 08:39:51;;;;;;;0.60;0.60;;;;;;;18.94;66.12;99986.63;5454255;26;20080;-69
2024/04/14 08:42:20;;;;;;;0.60;0.60;;;;;;;19.05;65.89;99994.94;5454548;26;20012;-69
2024/04/14 08:44:54;;;;;;;0.80;0.80;;;;;;;19.09;65.30;99981.00;5454283;26;20079;-69
2024/04/14 08:47:22;;;;;;;1.30;1.10;;;;;;;19.21;65.33;99996.16;5454474;26;20217;-66
2024/04/14 08:49:55;;;;;;;2.05;1.70;;;;;;;19.25;65.48;99987.41;5454379;26;19999;-68
2024/04/14 08:52:26;;;;;;;0.95;0.90;;;;;;;19.23;65.05;99990.03;5452312;26;19998;-68
2024/04/14 08:54:57;;;;;;;1.05;0.90;;;;;;;19.25;64.73;99988.25;5454421;26;19999;-69
2024/04/14 08:57:26;;;;;;;2.30;1.70;;;;;;;19.36;64.29;100000.91;5453886;26;20488;-68
2024/04/14 09:00:01;;;;;;;1.60;1.13;;;;;;;19.33;64.05;99983.69;5454079;26;20003;-68
2024/04/14 09:02:30;;;;;;;2.42;0.90;;;;;;;19.44;64.07;99988.53;5454230;26;19999;-68
2024/04/14 09:05:02;;;;;;;1.42;1.25;;;;;;;19.51;64.08;99990.03;5446258;26;20458;-68
2024/04/14 09:07:30;;;;;;;1.25;1.15;;;;;;;19.64;64.19;99988.75;5418260;26;20085;-66
2024/04/14 09:10:00;;;;;;;0.82;0.80;;;;;;;19.72;64.49;99999.72;5416882;26;20000;-68
2024/04/14 09:12:30;;;;;;;0.70;0.70;;;;;;;19.84;64.46;99983.75;5417426;26;20003;-69
2024/04/14 09:15:05;;;;;;;2.95;1.85;;;;;;;19.90;64.20;99987.91;5417699;26;20019;-68
2024/04/14 09:17:35;;;;;;;1.98;1.63;;;;;;;19.94;64.06;99992.91;5418168;26;20072;-68
2024/04/14 09:20:05;;;;;;;;;;;;;;;20.06;65.19;99989.91;5418317;26;20039;-69
2024/04/14 09:22:33;;;;;;;0.75;0.75;;;;;;;19.96;64.64;99993.72;5417239;26;19925;-68
2024/04/14 09:25:04;;;;;;;1.25;1.15;;;;;;;19.94;65.61;99982.56;5438362;26;20448;-68
2024/04/14 09:27:32;;;;;;;1.10;1.00;;;;;;;20.08;65.06;99981.25;5453573;26;20461;-69
2024/04/14 09:30:16;;;;;;;1.45;1.35;;;;;;;20.18;63.77;99972.25;5453478;26;20003;-68
2024/04/14 09:32:44;;;;;;;0.63;0.63;;;;;;;20.33;63.60;99976.91;5451822;26;20007;-68
2024/04/14 09:35:15;;;;;;;1.33;1.23;;;;;;;20.35;63.75;99975.09;5453268;26;19999;-68
2024/04/14 09:37:44;;;;;;;0.77;0.77;;;;;;;20.44;63.44;99970.44;5453484;26;20363;-68
2024/04/14 09:40:15;;;;;;;1.20;1.10;;;;;;;20.63;62.80;99965.44;5453127;26;20010;-68
2024/04/14 09:42:44;;;;;;;1.25;0.93;;;;;;;20.77;63.36;99963.19;5453312;26;20022;-67
2024/04/14 09:45:19;;;;;;;2.13;1.15;;;;;;;20.90;63.67;99969.56;5451373;26;20018;-70
2024/04/14 09:47:50;;;;;;;1.67;1.08;;;;;;;20.95;63.41;99957.28;5450792;26;20005;-66
2024/04/14 09:50:23;;;;;;;2.03;1.33;;;;;;;21.06;63.24;99955.16;5453199;26;20023;-68
2024/04/14 09:52:52;;;;;;;1.00;0.95;;;;;;;21.12;62.96;99949.72;5451347;26;20007;-67
2024/04/14 09:55:23;;;;;;;0.75;0.75;;;;;;;21.18;63.61;99949.50;5452894;26;20499;-68
2024/04/14 09:57:51;;;;;;;1.60;1.42;;;;;;;21.35;63.18;99941.84;5451157;26;20068;-69
2024/04/14 10:00:24;;;;;;;1.90;1.48;;;;;;;21.43;63.29;99927.72;5453046;26;20071;-68
2024/04/14 10:02:56;;;;;;;2.05;1.25;;;;;;;21.68;62.70;99923.19;5453103;26;20453;-69
2024/04/14 10:05:29;;;;;;;2.22;1.45;;;;;;;21.93;63.07;99918.69;5453329;26;20003;-68
2024/04/14 10:07:58;;;;;;;5.35;1.17;;;;;;;22.00;60.49;99909.72;5452948;26;19999;-68
2024/04/14 10:10:30;;;;;;;1.35;1.25;;;;;;;22.20;61.29;99921.81;5451064;26;20130;-68
2024/04/14 10:12:58;;;;;;;1.60;1.13;;;;;;;22.32;60.01;99906.50;5452640;26;20341;-69
2024/04/14 10:15:31;;;;;;;0.70;0.70;;;;;;;22.48;58.16;99922.28;5420911;26;19999;-65
2024/04/14 10:18:15;;;;;;;1.70;0.95;;;;;;;22.62;58.08;99909.50;5452826;26;19999;-67
2024/04/14 10:20:46;;;;;;;1.65;0.93;;;;;;;22.83;57.89;99898.09;5450330;26;19999;-68
2024/04/14 10:23:17;;;;;;;1.75;0.98;;;;;;;22.68;57.55;99863.22;5456162;26;20509;-67
2024/04/14 10:25:49;;;;;;;3.63;1.40;;;;;;;23.05;58.50;99903.13;5456520;26;20468;-69
2024/04/14 10:28:18;;;;;;;3.72;1.58;;;;;;;23.12;58.18;99888.88;5456197;26;20026;-68
2024/04/14 10:31:04;;;;;;;1.23;1.10;;;;;;;23.36;57.05;99892.94;5454420;26;20413;-68
2024/04/14 10:33:32;;;;;;;1.13;1.02;;;;;;;23.53;54.66;99892.94;5456335;26;20337;-68
2024/04/14 10:36:04;;;;;;;1.27;1.15;;;;;;;23.71;54.90;99889.38;5456133;26;19999;-70
2024/04/14 10:38:33;;;;;;;1.55;1.10;;;;;;;23.88;54.95;99883.31;5454460;26;20034;-69
2024/04/14 10:41:05;;;;;;;0.70;0.70;;;;;;;24.01;54.04;99871.31;5456342;26;20010;-69
2024/04/14 10:43:35;;;;;;;0.98;0.88;;;;;;;24.07;52.31;99854.56;5456094;26;20006;-69
2024/04/14 10:46:10;;;;;;;0.50;0.50;;;;;;;24.37;49.89;99877.22;5456550;26;20011;-70
2024/04/14 10:48:42;;;;;;;0.40;0.40;;;;;;;24.50;49.92;99864.34;5456172;26;20057;-69
2024/04/14 10:51:13;;;;;;;0.60;0.60;;;;;;;24.64;48.43;99864.44;5455998;26;19999;-70
2024/04/14 10:53:41;;;;;;;0.70;0.70;;;;;;;24.73;48.22;99850.88;5455873;26;19999;-69
2024/04/14 10:56:12;;;;;;;0.82;0.80;;;;;;;24.64;48.21;99862.66;5455836;26;20007;-69
2024/04/14 10:58:40;;;;;;;0.60;0.60;;;;;;;24.71;49.23;99868.41;5455684;26;20009;-70
2024/04/14 11:01:13;;;;;;;2.17;1.27;;;;;;;24.83;48.95;99857.31;5455650;26;20338;-70
2024/04/14 11:03:41;;;;;;;0.70;0.70;;;;;;;24.73;48.58;99856.09;5455737;26;20002;-70
2024/04/14 11:06:12;;;;;;;0.88;0.85;;;;;;;24.70;49.07;99848.44;5455653;26;20003;-70
2024/04/14 11:08:41;;;;;;;0.90;0.90;;;;;;;24.82;49.31;99858.22;5455724;26;19999;-69
2024/04/14 11:11:13;;;;;;;1.43;1.33;;;;;;;24.80;49.86;99847.03;5453991;26;20083;-70
2024/04/14 11:13:42;;;;;;;1.45;0.85;;;;;;;24.51;50.06;99813.81;5455776;26;20232;-68
2024/04/14 11:16:18;;;;;;;0.82;0.73;;;;;;;24.91;50.45;99842.03;5455527;26;20074;-68
2024/04/14 11:18:47;;;;;;;1.27;0.93;;;;;;;25.05;49.17;99847.28;5449682;26;20074;-68
2024/04/14 11:21:23;;;;;;;0.88;0.70;;;;;;;25.16;48.98;99844.94;5436835;26;20007;-70
2024/04/14 11:23:52;;;;;;;0.50;0.50;;;;;;;25.14;49.11;99844.19;5419291;26;20015;-69
2024/04/14 11:26:24;;;;;;;1.23;1.13;;;;;;;24.95;48.73;99822.66;5419752;26;20018;-70
2024/04/14 11:28:53;;;;;;;0.90;0.90;;;;;;;25.02;49.47;99837.06;5426193;26;20465;-68
2024/04/14 11:31:26;;;;;;;1.80;1.33;;;;;;;25.09;49.33;99832.31;5455825;26;20441;-67
2024/04/14 11:33:54;;;;;;;2.75;1.60;;;;;;;25.14;49.73;99825.88;5453931;26;20480;-69
2024/04/14 11:36:26;;;;;;;0.70;0.70;;;;;;;25.25;50.01;99825.25;5453362;26;20035;-69
2024/04/14 11:38:57;;;;;;;0.70;0.70;;;;;;;25.38;48.67;99822.75;5455427;26;20081;-68
2024/04/14 11:41:25;;;;;;;1.10;0.90;;;;;;;25.53;48.35;99819.28;5455311;26;20081;-67
2024/04/14 11:43:55;;;;;;;2.30;0.57;;;;;;;25.63;48.05;99817.78;5455330;26;19998;-70